Startpagina
METAR-TAF:

METAR-TAF

Vliegvelden :

Exeter International Airport

Exeter, Engeland

breedte: 50-44N, lengte: 003-25W, hoogte: 30 m

Actueel weer

Dit bericht is 2 uur en het 0 minuten geleden gemaakt, om 23:50 UTC
Wind 2 kt uit het oosten
Temperatuur 4°C
Vochtigheid 100%
Druk 1026 hPa
Zicht: 6000 m
Geheel bewolkt op 600 ft

METAR: EGTE 232350Z 09002KT 6000 OVC006 04/04 Q1026

Tijdstip: 01:50 (01:50 UTC)

Verwachting

Dit bericht is 2 uur en het 45 minuten geleden gemaakt, om 23:05 UTC
Verwachting geldig van 24 om 00 UTC tot 24 om 04 UTC
Wind 5 kt uit het oostnoordoosten
Zicht: 6000 m
Gebroken wolken op 900 ft
Tijdelijke
van 24 om 00 UTC tot 24 om 04 UTC
Zicht: 3000 m
Gebroken wolken op 300 ft
nevel
Kans 30% :
Tijdelijke
van 24 om 02 UTC tot 24 om 04 UTC
Zicht: 0800 m
Gebroken wolken op 100 ft
mist

TAF: EGTE 232305Z 2400/2404 06005KT 6000 BKN009 TEMPO 2400/2404 3000 BR BKN003 PROB30 TEMPO 2402/2404 0800 FG BKN001

Waarnemingen en weersverwachtingen van meer dan 4000 vliegvelden (METAR en TAF).

De beschikbare stations zijn de gele en rode punten op de kaart.

Ga met uw muis naar het station om de naam te zien.

Klik dan om waarnemingen en weersverwachtingen te zien.

kaart wijzigen: klik op de groene knoppen met een zwart kruis om in te zoomen, op de groene knop met een streepje om uit te zoomen of op de groene pijlen voor aangrenzende kaarten.


METAR-TAF: